createdAt,value
2022-10-22T00:01:29.725Z,92.34
2022-10-22T00:03:02.778Z,93.26
2022-10-22T00:04:35.503Z,92.87
2022-10-22T00:06:07.731Z,93.60
2022-10-22T00:07:39.738Z,94.17
2022-10-22T00:09:11.584Z,93.95
2022-10-22T00:10:43.228Z,93.30
2022-10-22T00:12:14.883Z,93.36
2022-10-22T00:15:18.274Z,93.69
2022-10-22T00:16:49.971Z,93.74
2022-10-22T00:18:22.932Z,93.51
2022-10-22T00:19:54.523Z,93.81
2022-10-22T00:21:29.001Z,94.51
2022-10-22T00:23:00.611Z,93.66
2022-10-22T00:24:32.280Z,94.04
2022-10-22T00:26:04.069Z,93.35
2022-10-22T00:27:35.631Z,93.95
2022-10-22T00:29:07.267Z,94.25
2022-10-22T00:30:38.896Z,94.50
2022-10-22T00:32:10.605Z,94.71
2022-10-22T00:33:43.800Z,94.07
2022-10-22T00:35:15.404Z,92.59
2022-10-22T00:36:47.250Z,92.72
2022-10-22T00:38:18.917Z,93.16
2022-10-22T00:39:50.499Z,93.80
2022-10-22T00:41:22.305Z,93.61
2022-10-22T00:42:53.936Z,93.03
2022-10-22T00:45:03.097Z,94.55
2022-10-22T00:46:34.716Z,93.57
2022-10-22T00:48:07.173Z,93.68
2022-10-22T00:49:40.136Z,94.15
2022-10-22T00:51:11.784Z,94.06
2022-10-22T00:52:43.594Z,94.08
2022-10-22T00:54:15.349Z,93.51
2022-10-22T00:55:48.969Z,92.69
2022-10-22T00:57:20.586Z,93.89
2022-10-22T00:58:53.356Z,95.30
2022-10-22T01:00:25.019Z,95.22
2022-10-22T01:01:56.674Z,93.88
2022-10-22T01:03:28.271Z,93.62
2022-10-22T01:05:01.333Z,93.62
2022-10-22T01:06:33.621Z,94.00
2022-10-22T01:08:05.756Z,93.96
2022-10-22T01:09:40.956Z,94.76
2022-10-22T01:11:15.147Z,94.32
2022-10-22T01:12:49.732Z,94.53
2022-10-22T01:14:24.280Z,94.55
2022-10-22T01:15:58.870Z,95.13
2022-10-22T01:17:33.460Z,94.59
2022-10-22T01:19:13.892Z,94.79
2022-10-22T01:21:07.006Z,94.56
2022-10-22T01:22:40.253Z,94.62
2022-10-22T01:24:19.895Z,94.19
2022-10-22T01:25:53.923Z,93.34
2022-10-22T01:27:45.902Z,94.49
2022-10-22T01:29:19.170Z,95.52
2022-10-22T01:30:51.099Z,95.53
2022-10-22T01:32:23.505Z,94.72
2022-10-22T01:33:55.116Z,94.45
2022-10-22T01:35:27.949Z,94.36
2022-10-22T01:36:59.539Z,94.44
2022-10-22T01:38:31.121Z,94.48
2022-10-22T01:40:02.828Z,93.87
2022-10-22T01:41:34.625Z,93.97
2022-10-22T01:43:07.348Z,93.51
2022-10-22T01:44:40.350Z,93.13
2022-10-22T01:46:12.320Z,93.03
2022-10-22T01:47:49.786Z,93.76
2022-10-22T01:49:24.492Z,94.38
2022-10-22T01:51:22.647Z,94.72
2022-10-22T01:53:04.612Z,93.97
2022-10-22T01:54:38.492Z,95.01
2022-10-22T01:56:16.986Z,95.07
2022-10-22T01:57:51.172Z,95.23
2022-10-22T01:59:28.301Z,94.99
2022-10-22T02:01:04.951Z,95.66
2022-10-22T02:02:40.636Z,94.96
2022-10-22T02:04:13.817Z,95.18
2022-10-22T02:05:46.699Z,95.50
2022-10-22T02:07:20.531Z,95.70
2022-10-22T02:08:52.296Z,95.41
2022-10-22T02:10:23.996Z,96.18
2022-10-22T02:11:55.663Z,95.93
2022-10-22T02:13:28.310Z,95.21
2022-10-22T02:15:00.044Z,95.24
2022-10-22T02:16:34.430Z,95.10
2022-10-22T02:18:06.310Z,95.55
2022-10-22T02:19:39.798Z,96.11
2022-10-22T02:21:11.423Z,95.12
2022-10-22T02:22:43.237Z,96.28
2022-10-22T02:24:15.045Z,95.89
2022-10-22T02:25:48.151Z,95.76
2022-10-22T02:27:25.872Z,96.05
2022-10-22T02:28:59.943Z,96.18
2022-10-22T02:30:31.577Z,96.55
2022-10-22T02:32:04.820Z,96.80
2022-10-22T02:33:37.742Z,95.70
2022-10-22T02:35:09.389Z,95.99
2022-10-22T02:36:41.148Z,95.93
2022-10-22T02:38:12.776Z,95.80
2022-10-22T02:39:44.425Z,95.95
2022-10-22T02:41:16.315Z,96.20
2022-10-22T02:42:48.194Z,95.93
2022-10-22T02:44:21.014Z,95.29
2022-10-22T02:45:52.612Z,94.77
2022-10-22T02:47:25.715Z,94.83
2022-10-22T02:48:57.339Z,94.54
2022-10-22T02:50:28.990Z,95.04
2022-10-22T02:52:00.886Z,94.88
2022-10-22T02:53:32.487Z,95.36
2022-10-22T02:55:04.548Z,95.03
2022-10-22T02:56:36.216Z,95.19
2022-10-22T02:58:07.839Z,94.76
2022-10-22T02:59:39.474Z,94.75
2022-10-22T03:01:13.747Z,94.06
2022-10-22T03:02:49.073Z,94.56
2022-10-22T03:04:20.656Z,94.18
2022-10-22T03:05:52.373Z,94.04
2022-10-22T03:07:23.982Z,94.02
2022-10-22T03:08:55.670Z,94.16
2022-10-22T03:10:27.332Z,94.00
2022-10-22T03:11:58.980Z,94.13
2022-10-22T03:13:30.556Z,94.40
2022-10-22T03:15:02.120Z,94.25
2022-10-22T03:16:33.775Z,94.91
2022-10-22T03:18:06.800Z,94.64
2022-10-22T03:19:38.514Z,94.47
2022-10-22T03:21:11.360Z,94.54
2022-10-22T03:22:43.087Z,94.16
2022-10-22T03:24:16.319Z,94.77
2022-10-22T03:25:48.277Z,94.50
2022-10-22T03:27:20.384Z,94.33
2022-10-22T03:28:51.972Z,95.04
2022-10-22T03:30:23.575Z,95.10
2022-10-22T03:31:55.376Z,95.13
2022-10-22T03:33:28.350Z,95.12
2022-10-22T03:36:31.627Z,95.29
2022-10-22T03:38:03.249Z,95.70
2022-10-22T03:39:34.908Z,95.41
2022-10-22T03:41:06.596Z,95.50
2022-10-22T03:42:38.303Z,95.46
2022-10-22T03:44:10.132Z,95.90
2022-10-22T03:45:41.789Z,95.89
2022-10-22T03:47:13.795Z,96.46
2022-10-22T03:48:46.738Z,96.70
2022-10-22T03:50:18.757Z,95.79
2022-10-22T03:51:50.626Z,95.04
2022-10-22T03:53:22.238Z,95.21
2022-10-22T03:54:54.038Z,94.83
2022-10-22T03:56:25.624Z,94.83
2022-10-22T03:57:57.205Z,94.92
2022-10-22T03:59:28.835Z,94.79
2022-10-22T04:01:04.828Z,94.90
2022-10-22T04:02:36.470Z,96.12
2022-10-22T04:04:09.452Z,95.45
2022-10-22T04:05:41.058Z,95.35
2022-10-22T04:07:12.673Z,94.88
2022-10-22T04:08:44.377Z,94.62
2022-10-22T04:10:16.178Z,94.98
2022-10-22T04:11:47.779Z,95.13
2022-10-22T04:13:19.452Z,95.88
2022-10-22T04:14:51.052Z,95.32
2022-10-22T04:16:25.004Z,94.80
2022-10-22T04:17:59.131Z,94.45
2022-10-22T04:19:32.074Z,94.89
2022-10-22T04:21:04.241Z,94.72
2022-10-22T04:22:36.012Z,94.64
2022-10-22T04:24:07.739Z,94.52
2022-10-22T04:25:39.422Z,93.73
2022-10-22T04:27:11.028Z,94.66
2022-10-22T04:28:42.755Z,94.10
2022-10-22T04:30:14.380Z,94.62
2022-10-22T04:31:45.960Z,94.57
2022-10-22T04:33:18.110Z,94.53
2022-10-22T04:34:51.042Z,93.96
2022-10-22T04:36:22.792Z,94.63
2022-10-22T04:37:54.551Z,94.17
2022-10-22T04:39:26.303Z,93.60
2022-10-22T04:40:57.928Z,94.64
2022-10-22T04:42:29.560Z,95.00
2022-10-22T04:44:01.244Z,94.22
2022-10-22T04:45:32.942Z,94.03
2022-10-22T04:47:04.655Z,94.24
2022-10-22T04:48:36.532Z,94.42
2022-10-22T04:50:09.881Z,94.00
2022-10-22T04:51:41.502Z,95.48
2022-10-22T04:53:13.107Z,94.41
2022-10-22T04:54:44.707Z,94.47
2022-10-22T04:56:19.828Z,94.46
2022-10-22T04:57:51.410Z,94.15
2022-10-22T04:59:23.058Z,95.52
2022-10-22T05:00:54.714Z,94.89
2022-10-22T05:02:26.317Z,95.21
2022-10-22T05:03:59.108Z,94.66
2022-10-22T05:05:32.370Z,95.28
2022-10-22T05:07:03.965Z,93.98
2022-10-22T05:08:35.698Z,94.80
2022-10-22T05:10:08.533Z,93.53
2022-10-22T05:11:46.136Z,93.47
2022-10-22T05:13:17.735Z,94.08
2022-10-22T05:14:49.389Z,93.65
2022-10-22T05:16:20.981Z,93.09
2022-10-22T05:17:52.621Z,94.21
2022-10-22T05:19:25.271Z,94.19
2022-10-22T05:20:58.203Z,95.38
2022-10-22T05:22:29.866Z,95.46
2022-10-22T05:24:01.499Z,94.82
2022-10-22T05:25:37.101Z,94.56
2022-10-22T05:27:08.883Z,94.30
2022-10-22T05:28:40.653Z,94.69
2022-10-22T05:30:12.752Z,94.90
2022-10-22T05:31:44.398Z,94.96
2022-10-22T05:33:16.065Z,95.87
2022-10-22T05:34:47.662Z,95.76
2022-10-22T05:36:21.548Z,95.65
2022-10-22T05:37:53.180Z,95.49
2022-10-22T05:39:24.825Z,94.39
2022-10-22T05:41:00.645Z,94.35
2022-10-22T05:42:32.326Z,95.54
2022-10-22T05:44:04.114Z,95.18
2022-10-22T05:45:36.704Z,95.04
2022-10-22T05:47:09.982Z,95.15
2022-10-22T05:48:41.684Z,94.68
2022-10-22T05:50:13.546Z,95.95
2022-10-22T05:51:46.912Z,95.44
2022-10-22T05:53:18.578Z,95.22
2022-10-22T05:54:50.186Z,95.39
2022-10-22T05:56:21.968Z,95.42
2022-10-22T05:57:53.599Z,95.05
2022-10-22T05:59:25.261Z,95.42
2022-10-22T06:01:01.468Z,94.57
2022-10-22T06:02:33.199Z,93.75
2022-10-22T06:04:06.073Z,94.06
2022-10-22T06:05:37.809Z,94.13
2022-10-22T06:07:10.935Z,95.38
2022-10-22T06:08:42.546Z,94.85
2022-10-22T06:10:14.829Z,94.17
2022-10-22T06:11:46.761Z,94.58
2022-10-22T06:13:18.396Z,94.45
2022-10-22T06:14:49.962Z,95.29
2022-10-22T06:16:21.570Z,96.27
2022-10-22T06:17:53.159Z,97.04
2022-10-22T06:19:26.828Z,96.08
2022-10-22T06:21:04.246Z,95.89
2022-10-22T06:22:37.218Z,94.81
2022-10-22T06:24:09.315Z,95.94
2022-10-22T06:25:41.105Z,95.77
2022-10-22T06:27:12.706Z,95.32
2022-10-22T06:28:44.357Z,94.53
2022-10-22T06:30:16.113Z,94.40
2022-10-22T06:31:47.787Z,94.98
2022-10-22T06:33:19.390Z,95.48
2022-10-22T06:34:51.059Z,94.16
2022-10-22T06:36:23.297Z,93.63
2022-10-22T06:37:56.237Z,92.95
2022-10-22T06:39:28.070Z,93.29
2022-10-22T06:41:02.984Z,93.98
2022-10-22T06:42:34.578Z,94.19
2022-10-22T06:44:06.159Z,94.82
2022-10-22T06:45:37.804Z,94.93
2022-10-22T06:47:09.410Z,94.62
2022-10-22T06:48:41.100Z,94.16
2022-10-22T06:50:12.713Z,93.82
2022-10-22T06:51:44.352Z,94.02
2022-10-22T06:53:17.632Z,94.15
2022-10-22T06:54:49.292Z,95.11
2022-10-22T06:56:21.765Z,94.18
2022-10-22T06:57:53.371Z,93.95
2022-10-22T06:59:25.006Z,94.30
2022-10-22T07:01:01.759Z,94.58
2022-10-22T07:02:33.511Z,94.27
2022-10-22T07:04:05.444Z,94.12
2022-10-22T07:05:37.094Z,93.44
2022-10-22T07:07:08.671Z,94.45
2022-10-22T07:08:41.874Z,94.56
2022-10-22T07:10:13.483Z,94.15
2022-10-22T07:11:45.773Z,94.33
2022-10-22T07:13:17.416Z,94.07
2022-10-22T07:14:49.015Z,94.65
2022-10-22T07:16:20.653Z,94.39
2022-10-22T07:17:52.221Z,93.86
2022-10-22T07:19:23.818Z,94.11
2022-10-22T07:20:55.473Z,94.12
2022-10-22T07:22:27.191Z,94.64
2022-10-22T07:24:00.288Z,94.70
2022-10-22T07:25:31.915Z,94.43
2022-10-22T07:27:05.108Z,94.38
2022-10-22T07:28:39.898Z,94.62
2022-10-22T07:30:12.103Z,94.90
2022-10-22T07:31:43.772Z,94.43
2022-10-22T07:33:15.477Z,94.33
2022-10-22T07:34:47.086Z,95.00
2022-10-22T07:36:18.862Z,94.14
2022-10-22T07:37:50.469Z,94.44
2022-10-22T07:39:25.736Z,93.90
2022-10-22T07:40:57.386Z,94.19
2022-10-22T07:44:01.502Z,93.88
2022-10-22T07:45:33.836Z,93.63
2022-10-22T07:47:05.513Z,94.49
2022-10-22T07:48:37.292Z,93.24
2022-10-22T07:50:09.769Z,93.69
2022-10-22T07:51:41.377Z,93.38
2022-10-22T07:53:13.062Z,95.20
2022-10-22T07:54:45.994Z,93.60
2022-10-22T07:56:17.902Z,93.81
2022-10-22T07:57:49.480Z,93.97
2022-10-22T07:59:21.173Z,93.61
2022-10-22T08:00:55.197Z,93.23
2022-10-22T08:02:26.782Z,94.38
2022-10-22T08:03:58.363Z,93.24
2022-10-22T08:05:30.019Z,93.57
2022-10-22T08:07:01.726Z,94.86
2022-10-22T08:08:34.706Z,94.88
2022-10-22T08:10:08.905Z,95.18
2022-10-22T08:11:40.536Z,95.05
2022-10-22T08:13:12.399Z,94.87
2022-10-22T08:14:44.030Z,95.06
2022-10-22T08:16:15.682Z,94.96
2022-10-22T08:17:47.310Z,95.31
2022-10-22T08:19:21.079Z,94.66
2022-10-22T08:20:52.878Z,94.61
2022-10-22T08:22:24.493Z,94.32
2022-10-22T08:23:56.101Z,94.86
2022-10-22T08:25:29.172Z,93.80
2022-10-22T08:27:00.849Z,93.21
2022-10-22T08:28:36.913Z,94.34
2022-10-22T08:30:09.998Z,95.05
2022-10-22T08:31:41.637Z,94.78
2022-10-22T08:33:13.256Z,95.27
2022-10-22T08:34:44.903Z,95.06
2022-10-22T08:36:16.524Z,94.49
2022-10-22T08:37:48.192Z,94.49
2022-10-22T08:39:19.830Z,94.90
2022-10-22T08:40:54.328Z,93.89
2022-10-22T08:42:40.680Z,93.82
2022-10-22T08:44:29.949Z,93.13
2022-10-22T08:46:08.816Z,93.62
2022-10-22T08:47:59.206Z,93.24
2022-10-22T08:49:35.105Z,93.79
2022-10-22T08:51:10.865Z,93.94
2022-10-22T08:52:43.023Z,93.89
2022-10-22T08:54:19.042Z,94.58
2022-10-22T08:55:53.749Z,93.98
2022-10-22T08:57:40.342Z,93.88
2022-10-22T08:59:14.679Z,94.78
2022-10-22T09:00:47.654Z,94.11
2022-10-22T09:02:33.628Z,94.52
2022-10-22T09:04:07.106Z,94.45
2022-10-22T09:05:42.609Z,94.26
2022-10-22T09:07:14.215Z,93.45
2022-10-22T09:08:46.522Z,93.19
2022-10-22T09:10:18.852Z,92.22
2022-10-22T09:11:52.780Z,92.91
2022-10-22T09:13:24.545Z,92.02
2022-10-22T09:14:56.171Z,91.47
2022-10-22T09:16:34.205Z,91.56
2022-10-22T09:18:15.199Z,92.58
2022-10-22T09:19:52.665Z,92.47
2022-10-22T09:21:27.893Z,91.05
2022-10-22T09:23:05.170Z,92.33
2022-10-22T09:24:37.637Z,91.42
2022-10-22T09:26:13.550Z,91.56
2022-10-22T09:27:46.555Z,90.88
2022-10-22T09:29:19.812Z,91.46
2022-10-22T09:30:51.905Z,92.66
2022-10-22T09:32:23.756Z,90.60
2022-10-22T09:33:55.448Z,88.41
2022-10-22T09:35:27.233Z,88.60
2022-10-22T09:36:59.768Z,87.79
2022-10-22T09:38:32.584Z,88.35
2022-10-22T09:40:04.657Z,86.81
2022-10-22T09:41:36.247Z,87.52
2022-10-22T09:43:10.845Z,87.76
2022-10-22T09:44:46.317Z,88.02
2022-10-22T09:46:20.679Z,88.61
2022-10-22T09:48:18.818Z,87.91
2022-10-22T09:49:50.464Z,86.29
2022-10-22T09:51:25.794Z,87.83
2022-10-22T09:53:01.583Z,87.81
2022-10-22T09:54:42.397Z,86.51
2022-10-22T09:56:18.766Z,87.59
2022-10-22T09:57:53.138Z,87.13
2022-10-22T09:59:30.479Z,88.03
2022-10-22T10:01:02.255Z,87.15
2022-10-22T10:02:38.587Z,85.79
2022-10-22T10:04:12.145Z,85.33
2022-10-22T10:05:44.574Z,86.02
2022-10-22T10:07:16.744Z,86.03
2022-10-22T10:08:48.897Z,85.08
2022-10-22T10:10:25.117Z,84.41
2022-10-22T10:11:59.331Z,83.75
2022-10-22T10:13:38.230Z,84.77
2022-10-22T10:15:16.708Z,85.25
2022-10-22T10:16:54.140Z,85.02
2022-10-22T10:18:31.039Z,85.16
2022-10-22T10:20:10.524Z,85.57
2022-10-22T10:21:47.303Z,84.20
2022-10-22T10:23:24.436Z,84.27
2022-10-22T10:25:04.999Z,84.52
2022-10-22T10:26:38.878Z,85.45
2022-10-22T10:28:18.399Z,85.11
2022-10-22T10:29:52.796Z,83.73
2022-10-22T10:31:33.014Z,84.55
2022-10-22T10:33:13.767Z,84.94
2022-10-22T10:34:48.307Z,85.58
2022-10-22T10:36:24.687Z,84.53
2022-10-22T10:38:04.414Z,84.27
2022-10-22T10:39:39.659Z,84.16
2022-10-22T10:41:18.138Z,84.14
2022-10-22T10:42:53.195Z,83.94
2022-10-22T10:44:36.567Z,83.99
2022-10-22T10:46:10.973Z,83.29
2022-10-22T10:48:09.890Z,84.74
2022-10-22T10:49:41.586Z,84.41
2022-10-22T10:51:26.213Z,85.09
2022-10-22T10:53:02.592Z,84.05
2022-10-22T10:54:42.515Z,84.41
2022-10-22T10:56:24.155Z,84.32
2022-10-22T10:57:59.824Z,84.83
2022-10-22T10:59:38.924Z,83.07
2022-10-22T11:01:16.883Z,84.79
2022-10-22T11:03:12.605Z,83.70
2022-10-22T11:05:13.068Z,83.69
2022-10-22T11:06:44.827Z,83.15
2022-10-22T11:08:18.814Z,82.76
2022-10-22T11:09:53.370Z,82.95
2022-10-22T11:11:29.830Z,83.28
2022-10-22T11:13:05.078Z,83.00
2022-10-22T11:14:40.079Z,82.92
2022-10-22T11:16:16.630Z,82.24
2022-10-22T11:17:48.817Z,81.60
2022-10-22T11:19:39.635Z,81.82
2022-10-22T11:21:19.090Z,82.98
2022-10-22T11:23:17.585Z,81.41
2022-10-22T11:24:47.677Z,80.84
2022-10-22T11:26:26.742Z,79.04
2022-10-22T11:28:06.598Z,82.01
2022-10-22T11:29:41.095Z,82.28
2022-10-22T11:31:15.722Z,80.62
2022-10-22T11:32:48.043Z,82.77
2022-10-22T11:34:33.290Z,80.04
2022-10-22T11:36:05.943Z,80.64
2022-10-22T11:37:39.167Z,80.71
2022-10-22T11:39:30.210Z,78.84
2022-10-22T11:41:02.610Z,80.34
2022-10-22T11:42:34.910Z,78.90
2022-10-22T11:44:10.490Z,78.18
2022-10-22T11:45:42.731Z,80.16
2022-10-22T11:47:18.925Z,79.59
2022-10-22T11:49:01.246Z,79.04
2022-10-22T11:50:50.723Z,77.99
2022-10-22T11:52:24.279Z,77.44
2022-10-22T11:53:56.013Z,78.97
2022-10-22T11:55:31.466Z,76.26
2022-10-22T11:57:17.548Z,79.23
2022-10-22T11:58:52.328Z,76.84
2022-10-22T12:00:39.826Z,75.37
2022-10-22T12:02:42.268Z,76.07
2022-10-22T12:04:18.975Z,76.01
2022-10-22T12:06:11.567Z,76.77
2022-10-22T12:07:51.745Z,74.76
2022-10-22T12:09:24.704Z,74.95
2022-10-22T12:11:11.881Z,74.95
2022-10-22T12:12:43.666Z,75.41
2022-10-22T12:14:22.980Z,72.88
2022-10-22T12:15:56.659Z,73.21
2022-10-22T12:17:28.382Z,71.19
2022-10-22T12:19:02.904Z,72.51
2022-10-22T12:20:34.504Z,73.27
2022-10-22T12:22:13.955Z,74.82
2022-10-22T12:23:46.717Z,72.57
2022-10-22T12:25:21.445Z,71.51
2022-10-22T12:26:53.200Z,72.40
2022-10-22T12:28:24.814Z,70.63
2022-10-22T12:29:57.112Z,71.10
2022-10-22T12:31:28.929Z,70.02
2022-10-22T12:33:01.992Z,70.87
2022-10-22T12:34:33.620Z,72.70
2022-10-22T12:36:06.071Z,71.07
2022-10-22T12:37:39.306Z,71.61
2022-10-22T12:39:12.657Z,71.08
2022-10-22T12:40:48.728Z,69.19
2022-10-22T12:42:22.534Z,67.69
2022-10-22T12:43:59.081Z,66.71
2022-10-22T12:45:32.013Z,66.46
2022-10-22T12:47:03.640Z,67.59
2022-10-22T12:48:37.398Z,67.27
2022-10-22T12:50:16.143Z,69.07
2022-10-22T12:51:47.904Z,67.48
2022-10-22T12:53:22.615Z,67.87
2022-10-22T12:54:54.802Z,68.29
2022-10-22T12:56:27.554Z,68.28
2022-10-22T12:57:59.116Z,67.18
2022-10-22T12:59:33.030Z,65.65
2022-10-22T13:01:04.852Z,67.48
2022-10-22T13:02:36.479Z,68.20
2022-10-22T13:04:20.286Z,63.81
2022-10-22T13:05:51.907Z,64.36
2022-10-22T13:07:23.564Z,63.26
2022-10-22T13:08:58.885Z,69.27
2022-10-22T13:10:32.078Z,66.14
2022-10-22T13:12:07.405Z,67.19
2022-10-22T13:13:43.068Z,63.19
2022-10-22T13:15:22.920Z,67.74
2022-10-22T13:17:08.490Z,63.65
2022-10-22T13:18:40.307Z,63.64
2022-10-22T13:20:18.007Z,65.18
2022-10-22T13:21:49.578Z,65.83
2022-10-22T13:23:22.117Z,62.41
2022-10-22T13:24:59.308Z,63.34
2022-10-22T13:26:32.867Z,66.25
2022-10-22T13:28:16.693Z,62.77
2022-10-22T13:29:48.696Z,63.66
2022-10-22T13:31:21.520Z,63.79
2022-10-22T13:32:54.311Z,64.72
2022-10-22T13:34:25.949Z,61.01
2022-10-22T13:35:57.508Z,61.77
2022-10-22T13:37:30.034Z,64.46
2022-10-22T13:39:02.020Z,64.73
2022-10-22T13:40:35.055Z,63.48
2022-10-22T13:42:11.557Z,63.12
2022-10-22T13:43:43.218Z,65.32
2022-10-22T13:45:15.214Z,63.56
2022-10-22T13:46:46.881Z,64.04
2022-10-22T13:48:21.718Z,65.75
2022-10-22T13:51:29.035Z,63.30
2022-10-22T13:53:00.646Z,64.04
2022-10-22T13:54:32.235Z,65.77
2022-10-22T13:56:05.595Z,63.49
2022-10-22T13:57:37.163Z,62.28
2022-10-22T13:59:09.062Z,65.24
2022-10-22T14:00:41.774Z,61.22
2022-10-22T14:02:13.556Z,63.74
2022-10-22T14:03:45.186Z,65.19
2022-10-22T14:05:16.871Z,63.63
2022-10-22T14:06:48.461Z,62.63
2022-10-22T14:08:20.693Z,63.00
2022-10-22T14:09:52.321Z,63.79
2022-10-22T14:11:27.185Z,60.81
2022-10-22T14:12:58.762Z,62.48
2022-10-22T14:14:30.367Z,63.72
2022-10-22T14:16:02.007Z,65.52
2022-10-22T14:17:33.570Z,62.31
2022-10-22T14:19:05.224Z,63.70
2022-10-22T14:20:37.367Z,66.06
2022-10-22T14:22:13.123Z,65.18
2022-10-22T14:23:46.117Z,65.98
2022-10-22T14:25:18.946Z,65.59
2022-10-22T14:26:51.893Z,64.56
2022-10-22T14:28:23.529Z,66.67
2022-10-22T14:29:59.409Z,67.77
2022-10-22T14:31:31.276Z,67.89
2022-10-22T14:33:02.915Z,68.31
2022-10-22T14:34:35.272Z,69.28
2022-10-22T14:36:07.292Z,69.61
2022-10-22T14:37:38.870Z,67.19
2022-10-22T14:39:10.550Z,67.82
2022-10-22T14:40:42.952Z,69.48
2022-10-22T14:42:16.655Z,68.80
2022-10-22T14:43:48.364Z,70.72
2022-10-22T14:45:21.243Z,71.86
2022-10-22T14:46:56.166Z,70.44
2022-10-22T14:48:27.752Z,70.19
2022-10-22T14:49:59.527Z,69.82
2022-10-22T14:51:31.147Z,71.03
2022-10-22T14:53:02.714Z,71.96
2022-10-22T14:54:35.266Z,71.38
2022-10-22T14:56:06.953Z,71.54
2022-10-22T14:57:40.253Z,71.53
2022-10-22T14:59:12.212Z,72.47
2022-10-22T15:00:43.943Z,71.64
2022-10-22T15:02:15.596Z,72.86
2022-10-22T15:03:47.241Z,72.11
2022-10-22T15:05:19.208Z,72.81
2022-10-22T15:06:50.772Z,72.97
2022-10-22T15:08:22.330Z,73.30
2022-10-22T15:09:54.043Z,73.45
2022-10-22T15:11:25.704Z,74.57
2022-10-22T15:12:58.686Z,73.29
2022-10-22T15:14:33.097Z,73.83
2022-10-22T15:16:05.910Z,74.15
2022-10-22T15:17:37.581Z,73.87
2022-10-22T15:19:11.102Z,75.07
2022-10-22T15:20:42.719Z,74.20
2022-10-22T15:22:14.481Z,73.78
2022-10-22T15:23:46.083Z,74.62
2022-10-22T15:25:17.702Z,74.70
2022-10-22T15:26:50.931Z,74.79
2022-10-22T15:28:24.416Z,75.39
2022-10-22T15:29:58.746Z,73.52
2022-10-22T15:31:47.282Z,76.34
2022-10-22T15:33:18.995Z,75.15
2022-10-22T15:34:52.447Z,74.41
2022-10-22T15:36:24.202Z,75.25
2022-10-22T15:37:55.831Z,75.46
2022-10-22T15:39:27.481Z,75.16
2022-10-22T15:41:04.575Z,75.86
2022-10-22T15:42:37.396Z,75.96
2022-10-22T15:44:12.493Z,75.02
2022-10-22T15:45:44.416Z,76.31
2022-10-22T15:47:16.034Z,75.69
2022-10-22T15:48:47.651Z,77.70
2022-10-22T15:50:19.453Z,76.20
2022-10-22T15:51:51.088Z,77.07
2022-10-22T15:53:22.674Z,76.82
2022-10-22T15:54:54.412Z,76.78
2022-10-22T15:56:26.692Z,75.57
2022-10-22T15:58:00.624Z,77.57
2022-10-22T15:59:36.650Z,77.59
2022-10-22T16:01:09.225Z,78.33
2022-10-22T16:02:40.930Z,77.50
2022-10-22T16:04:12.582Z,77.05
2022-10-22T16:05:50.254Z,77.85
2022-10-22T16:07:23.977Z,79.00
2022-10-22T16:08:56.678Z,79.76
2022-10-22T16:10:28.419Z,80.74
2022-10-22T16:12:00.168Z,79.71
2022-10-22T16:13:31.796Z,80.18
2022-10-22T16:15:05.756Z,78.22
2022-10-22T16:16:39.799Z,79.23
2022-10-22T16:18:11.377Z,78.66
2022-10-22T16:19:42.935Z,79.90
2022-10-22T16:21:14.647Z,79.65
2022-10-22T16:22:49.699Z,79.63
2022-10-22T16:24:21.426Z,79.85
2022-10-22T16:25:53.102Z,79.20
2022-10-22T16:27:27.182Z,80.60
2022-10-22T16:28:58.800Z,80.61
2022-10-22T16:30:32.521Z,80.13
2022-10-22T16:32:04.601Z,79.95
2022-10-22T16:33:41.486Z,79.72
2022-10-22T16:35:16.436Z,80.60
2022-10-22T16:36:48.891Z,80.02
2022-10-22T16:38:20.539Z,80.97
2022-10-22T16:39:52.142Z,81.01
2022-10-22T16:41:24.399Z,80.42
2022-10-22T16:42:56.009Z,81.41
2022-10-22T16:44:27.765Z,80.61
2022-10-22T16:46:03.061Z,81.95
2022-10-22T16:47:34.679Z,81.93
2022-10-22T16:49:06.459Z,82.16
2022-10-22T16:50:39.051Z,80.76
2022-10-22T16:52:10.630Z,80.73
2022-10-22T16:53:42.434Z,81.19
2022-10-22T16:55:14.131Z,81.09
2022-10-22T16:56:45.772Z,81.97
2022-10-22T16:58:17.458Z,80.81
2022-10-22T16:59:49.182Z,81.25
2022-10-22T17:01:23.157Z,81.67
2022-10-22T17:02:54.893Z,81.15
2022-10-22T17:04:26.543Z,80.92
2022-10-22T17:05:58.362Z,82.65
2022-10-22T17:07:30.050Z,82.28
2022-10-22T17:09:01.802Z,81.51
2022-10-22T17:10:35.248Z,80.64
2022-10-22T17:12:06.983Z,81.85
2022-10-22T17:13:39.669Z,81.46
2022-10-22T17:15:11.367Z,82.32
2022-10-22T17:16:44.967Z,81.69
2022-10-22T17:18:16.643Z,82.18
2022-10-22T17:19:48.212Z,81.37
2022-10-22T17:21:20.085Z,81.00
2022-10-22T17:22:51.757Z,82.38
2022-10-22T17:24:23.508Z,82.24
2022-10-22T17:25:57.648Z,82.57
2022-10-22T17:27:29.237Z,81.60
2022-10-22T17:29:00.890Z,81.20
2022-10-22T17:30:32.519Z,81.35
2022-10-22T17:32:05.647Z,80.66
2022-10-22T17:33:37.279Z,81.73
2022-10-22T17:35:09.296Z,81.03
2022-10-22T17:36:40.952Z,82.79
2022-10-22T17:38:12.990Z,82.80
2022-10-22T17:39:44.714Z,81.75
2022-10-22T17:41:20.495Z,82.84
2022-10-22T17:42:52.206Z,81.98
2022-10-22T17:44:23.781Z,82.73
2022-10-22T17:46:16.259Z,81.69
2022-10-22T17:47:49.324Z,83.01
2022-10-22T17:49:20.973Z,82.24
2022-10-22T17:50:54.651Z,82.48
2022-10-22T17:52:28.461Z,82.42
2022-10-22T17:54:01.705Z,83.02
2022-10-22T17:55:35.223Z,82.54
2022-10-22T17:57:06.843Z,82.22
2022-10-22T17:58:38.522Z,81.96
2022-10-22T18:00:11.600Z,82.39
2022-10-22T18:01:47.636Z,83.95
2022-10-22T18:03:21.090Z,83.72
2022-10-22T18:04:52.847Z,86.40
2022-10-22T18:06:24.479Z,85.60
2022-10-22T18:07:56.282Z,84.00
2022-10-22T18:09:27.903Z,83.41
2022-10-22T18:10:59.911Z,82.95
2022-10-22T18:12:31.472Z,82.52
2022-10-22T18:14:03.285Z,83.14
2022-10-22T18:15:36.363Z,82.81
2022-10-22T18:17:08.286Z,83.73
2022-10-22T18:18:41.344Z,83.56
2022-10-22T18:20:14.140Z,84.21
2022-10-22T18:21:48.689Z,84.18
2022-10-22T18:23:20.453Z,83.83
2022-10-22T18:24:53.043Z,83.72
2022-10-22T18:26:26.877Z,83.21
2022-10-22T18:27:58.873Z,83.52
2022-10-22T18:29:30.574Z,83.02
2022-10-22T18:31:05.136Z,83.47
2022-10-22T18:32:36.747Z,83.03
2022-10-22T18:34:23.212Z,83.13
2022-10-22T18:35:56.838Z,83.20
2022-10-22T18:37:28.509Z,83.68
2022-10-22T18:39:00.953Z,84.06
2022-10-22T18:40:32.691Z,83.62
2022-10-22T18:42:06.921Z,84.21
2022-10-22T18:43:38.780Z,84.12
2022-10-22T18:45:12.030Z,83.61
2022-10-22T18:46:46.781Z,83.52
2022-10-22T18:48:19.468Z,84.25
2022-10-22T18:49:52.746Z,83.48
2022-10-22T18:51:24.650Z,83.94
2022-10-22T18:52:56.383Z,83.67
2022-10-22T18:54:28.006Z,83.86
2022-10-22T18:55:59.642Z,83.63
2022-10-22T18:57:31.352Z,83.20
2022-10-22T18:59:02.989Z,85.14
2022-10-22T19:00:37.017Z,85.47
2022-10-22T19:02:09.110Z,84.10
2022-10-22T19:03:40.871Z,84.97
2022-10-22T19:05:13.803Z,86.10
2022-10-22T19:06:46.031Z,85.59
2022-10-22T19:08:18.090Z,85.91
2022-10-22T19:09:49.839Z,85.21
2022-10-22T19:11:21.729Z,85.64
2022-10-22T19:12:53.504Z,85.44
2022-10-22T19:14:25.190Z,85.25
2022-10-22T19:16:01.927Z,85.42
2022-10-22T19:17:34.205Z,85.01
2022-10-22T19:19:06.680Z,84.22
2022-10-22T19:20:39.679Z,85.95
2022-10-22T19:22:11.254Z,84.99
2022-10-22T19:25:16.878Z,86.13
2022-10-22T19:26:48.782Z,85.43
2022-10-22T19:28:20.397Z,85.86
2022-10-22T19:29:51.986Z,84.95
2022-10-22T19:31:25.921Z,84.70
2022-10-22T19:32:57.760Z,84.20
2022-10-22T19:34:29.362Z,85.04
2022-10-22T19:36:07.868Z,86.71
2022-10-22T19:37:39.502Z,86.15
2022-10-22T19:39:11.091Z,85.55
2022-10-22T19:40:42.714Z,84.39
2022-10-22T19:42:14.760Z,85.06
2022-10-22T19:43:48.473Z,85.08
2022-10-22T19:45:20.118Z,85.09
2022-10-22T19:46:51.731Z,85.07
2022-10-22T19:48:23.373Z,84.77
2022-10-22T19:49:55.031Z,85.39
2022-10-22T19:51:29.830Z,84.42
2022-10-22T19:53:01.711Z,85.08
2022-10-22T19:54:33.330Z,84.16
2022-10-22T19:56:05.304Z,85.81
2022-10-22T19:57:38.937Z,85.50
2022-10-22T19:59:13.288Z,85.64
2022-10-22T20:00:45.004Z,84.65
2022-10-22T20:02:17.388Z,85.46
2022-10-22T20:03:49.178Z,85.01
2022-10-22T20:05:20.769Z,84.72
2022-10-22T20:06:53.922Z,85.00
2022-10-22T20:08:25.635Z,85.28
2022-10-22T20:09:57.392Z,84.06
2022-10-22T20:11:29.461Z,84.59
2022-10-22T20:13:04.043Z,85.03
2022-10-22T20:14:35.770Z,85.26